Time;durP1;ratioP1;P1;durP2;ratioP2;P2;SDS_P1;SDS_P2;PMS_P1;PMS_P2;Temp;Humidity;BMP_temperature;BMP_pressure;BME280_temperature;BME280_humidity;BME280_pressure;Samples;Min_cycle;Max_cycle;Signal;HPM_P1;HPM_P2
2022/09/02 00:01:03;;;;;;;3.65;1.85;;;;;;;18.05;64.61;100422.09;4966500;28;20055;-43
2022/09/02 00:03:33;;;;;;;4.43;1.90;;;;;;;18.03;65.06;100414.28;4963944;28;20059;-41
2022/09/02 00:06:01;;;;;;;4.88;1.98;;;;;;;17.99;65.66;100416.13;4968073;28;20047;-40
2022/09/02 00:08:30;;;;;;;6.25;1.95;;;;;;;18.00;65.79;100411.72;4978456;28;20475;-44
2022/09/02 00:10:59;;;;;;;5.00;2.13;;;;;;;17.97;65.08;100415.31;4964931;28;20509;-43
2022/09/02 00:13:28;;;;;;;7.43;2.05;;;;;;;17.95;65.56;100401.41;4965973;28;20046;-42
2022/09/02 00:15:55;;;;;;;4.45;1.50;;;;;;;17.93;66.17;100408.44;4965302;28;20078;-45
2022/09/02 00:18:23;;;;;;;4.32;2.00;;;;;;;17.91;65.95;100399.78;4960209;28;20047;-38
2022/09/02 00:20:52;;;;;;;;;;;;;;;17.72;66.76;100397.66;4967378;28;20395;-39
2022/09/02 00:23:22;;;;;;;4.57;1.70;;;;;;;17.86;65.94;100393.78;4965314;28;19928;-42
2022/09/02 00:25:54;;;;;;;6.70;1.80;;;;;;;17.86;65.64;100388.53;4973585;28;20061;-48
2022/09/02 00:28:23;;;;;;;5.78;2.05;;;;;;;17.85;66.22;100392.94;4962323;28;20055;-39
2022/09/02 00:30:51;;;;;;;3.72;1.95;;;;;;;17.85;66.05;100389.44;4969574;28;20042;-45
2022/09/02 00:33:19;;;;;;;8.07;2.78;;;;;;;17.84;66.53;100385.13;4964480;28;20474;-43
2022/09/02 00:35:47;;;;;;;6.35;1.90;;;;;;;17.84;66.02;100387.75;4963544;28;20052;-44
2022/09/02 00:38:15;;;;;;;5.75;1.70;;;;;;;17.80;66.43;100376.47;4967911;28;20054;-45
2022/09/02 00:40:45;;;;;;;8.23;2.40;;;;;;;17.81;66.60;100387.81;4981180;28;20047;-41
2022/09/02 00:43:36;;;;;;;3.53;1.98;;;;;;;17.73;66.71;100381.03;4965216;28;20714;-42
2022/09/02 00:46:03;;;;;;;22.38;2.30;;;;;;;17.76;66.08;100384.47;4965381;28;20051;-39
2022/09/02 00:48:30;;;;;;;6.57;2.25;;;;;;;17.75;67.25;100377.50;4952745;28;20118;-41
2022/09/02 00:50:57;;;;;;;7.65;2.33;;;;;;;17.73;67.01;100373.16;4963953;28;20105;-42
2022/09/02 00:53:25;;;;;;;8.38;2.10;;;;;;;17.70;67.26;100370.63;4964325;28;20039;-46
2022/09/02 00:55:51;;;;;;;8.65;1.95;;;;;;;17.71;67.00;100374.13;4965086;28;20431;-40
2022/09/02 00:58:23;;;;;;;6.38;2.25;;;;;;;17.70;67.42;100359.31;4967855;28;20058;-43
2022/09/02 01:00:56;;;;;;;7.85;2.47;;;;;;;17.68;67.44;100367.19;4983644;28;20423;-43
2022/09/02 01:03:26;;;;;;;4.03;2.40;;;;;;;17.67;67.30;100362.84;4964215;28;20078;-43
2022/09/02 01:05:53;;;;;;;;;;;;;;;17.50;67.85;100354.59;4979279;28;20051;-43
2022/09/02 01:08:24;;;;;;;5.93;2.35;;;;;;;17.63;67.20;100352.50;4966687;28;20330;-44
2022/09/02 01:10:54;;;;;;;5.88;2.63;;;;;;;17.60;67.15;100337.75;4964887;28;20050;-43
2022/09/02 01:13:24;;;;;;;9.63;2.25;;;;;;;17.61;67.43;100334.22;4964422;28;20073;-44
2022/09/02 01:15:54;;;;;;;;;;;;;;;17.42;68.09;100339.09;4981218;28;20133;-41
2022/09/02 01:18:24;;;;;;;5.22;1.80;;;;;;;17.55;67.06;100339.63;4960001;28;19927;-40
2022/09/02 01:20:51;;;;;;;5.35;1.95;;;;;;;17.53;67.54;100331.78;4964671;28;20050;-43
2022/09/02 01:23:18;;;;;;;4.88;2.45;;;;;;;17.55;67.48;100329.13;4960922;28;20063;-43
2022/09/02 01:25:45;;;;;;;7.63;2.00;;;;;;;17.54;68.03;100327.44;4964886;28;20169;-39
2022/09/02 01:28:16;;;;;;;6.30;2.05;;;;;;;17.53;67.52;100316.09;4981127;28;20054;-42
2022/09/02 01:30:47;;;;;;;7.90;2.20;;;;;;;17.51;67.79;100317.03;4967596;28;20050;-43
2022/09/02 01:33:14;;;;;;;9.18;2.20;;;;;;;17.51;67.93;100317.03;4974219;28;20047;-48
2022/09/02 01:35:42;;;;;;;8.15;2.25;;;;;;;17.50;67.58;100313.56;4966659;28;20046;-44
2022/09/02 01:38:09;;;;;;;7.03;2.25;;;;;;;17.50;67.74;100315.31;4973780;28;20114;-43
2022/09/02 01:40:36;;;;;;;12.90;2.10;;;;;;;17.52;68.44;100314.38;4963591;28;20057;-42
2022/09/02 01:43:08;;;;;;;5.35;1.65;;;;;;;17.54;67.83;100311.72;4969103;28;20380;-43
2022/09/02 01:45:36;;;;;;;4.65;1.85;;;;;;;17.56;68.16;100315.16;4966781;28;20047;-45
2022/09/02 01:48:05;;;;;;;5.63;1.40;;;;;;;17.55;67.83;100308.19;4961222;28;20054;-51
2022/09/02 01:50:32;;;;;;;5.68;1.60;;;;;;;17.55;68.20;100314.31;4965924;28;20101;-41
2022/09/02 01:53:02;;;;;;;5.28;1.90;;;;;;;17.57;67.55;100309.03;4965248;28;20046;-42
2022/09/02 01:55:31;;;;;;;6.18;1.98;;;;;;;17.55;67.78;100302.94;4964877;28;20208;-43
2022/09/02 01:57:59;;;;;;;9.25;2.55;;;;;;;17.54;67.81;100311.72;4963546;28;20058;-47
2022/09/02 02:00:26;;;;;;;7.05;2.20;;;;;;;17.55;68.05;100300.34;4968569;28;20042;-47
2022/09/02 02:02:54;;;;;;;8.25;1.90;;;;;;;17.52;68.24;100297.78;4966476;28;20105;-43
2022/09/02 02:05:22;;;;;;;8.35;1.92;;;;;;;17.52;68.60;100287.31;4964811;28;20050;-44
2022/09/02 02:07:49;;;;;;;5.10;1.77;;;;;;;17.52;68.14;100297.78;4963992;28;20565;-44
2022/09/02 02:10:17;;;;;;;9.95;2.85;;;;;;;17.50;67.93;100294.38;4970557;28;20042;-46
2022/09/02 02:12:44;;;;;;;8.52;1.95;;;;;;;17.50;68.02;100289.13;4966971;28;20039;-46
2022/09/02 02:15:15;;;;;;;5.30;1.52;;;;;;;17.50;67.71;100287.38;4982698;28;20050;-45
2022/09/02 02:17:42;;;;;;;4.15;2.03;;;;;;;17.47;68.31;100296.16;4980316;28;20072;-43
2022/09/02 02:20:10;;;;;;;8.00;1.67;;;;;;;17.50;67.88;100291.75;4970285;28;20059;-51
2022/09/02 02:22:38;;;;;;;7.20;1.58;;;;;;;17.50;67.76;100283.91;4979297;28;20058;-44
2022/09/02 02:25:05;;;;;;;2.88;1.33;;;;;;;17.52;67.99;100282.09;4970177;28;20046;-46
2022/09/02 02:27:32;;;;;;;4.65;1.48;;;;;;;17.51;68.70;100283.00;4965617;28;20105;-41
2022/09/02 02:29:59;;;;;;;6.80;1.98;;;;;;;17.52;68.25;100276.84;4966348;28;20035;-45
2022/09/02 02:32:26;;;;;;;6.10;1.80;;;;;;;17.54;68.40;100270.69;4967956;28;20051;-47
2022/09/02 02:34:53;;;;;;;3.97;2.05;;;;;;;17.53;68.50;100268.13;4968443;28;20554;-45
2022/09/02 02:37:20;;;;;;;7.65;1.88;;;;;;;17.53;68.37;100274.19;4966435;28;20102;-42
2022/09/02 02:39:51;;;;;;;3.65;1.67;;;;;;;17.52;68.25;100269.00;4970580;28;20051;-47
2022/09/02 02:42:17;;;;;;;3.15;1.77;;;;;;;17.52;67.77;100266.38;4967970;28;20056;-43
2022/09/02 02:44:44;;;;;;;8.93;2.22;;;;;;;17.53;68.43;100262.88;4968349;28;20050;-41
2022/09/02 02:47:11;;;;;;;5.82;1.42;;;;;;;17.50;68.70;100258.59;4966454;28;20047;-49
2022/09/02 02:49:41;;;;;;;6.88;1.60;;;;;;;17.50;68.50;100252.47;4964109;28;20411;-42
2022/09/02 02:52:08;;;;;;;4.10;1.55;;;;;;;17.48;68.41;100255.13;4967261;28;20134;-47
2022/09/02 02:54:35;;;;;;;5.07;1.63;;;;;;;17.49;68.09;100253.38;4972778;28;20050;-42
2022/09/02 02:57:04;;;;;;;6.63;1.58;;;;;;;17.47;67.80;100241.19;4967619;28;20054;-48
2022/09/02 02:59:30;;;;;;;5.78;1.70;;;;;;;17.47;67.43;100238.56;4963973;28;20051;-52
2022/09/02 03:01:57;;;;;;;4.93;1.52;;;;;;;17.45;68.26;100240.38;4967529;28;20050;-46
2022/09/02 03:04:25;;;;;;;6.15;1.65;;;;;;;17.43;67.62;100234.31;4969958;28;20055;-47
2022/09/02 03:06:51;;;;;;;6.13;1.50;;;;;;;17.43;67.89;100239.56;4969286;28;20522;-46
2022/09/02 03:09:19;;;;;;;6.50;1.35;;;;;;;17.40;67.72;100230.94;4967630;28;20062;-52
2022/09/02 03:11:47;;;;;;;7.28;2.00;;;;;;;17.39;68.14;100234.47;4968052;28;20097;-49
2022/09/02 03:14:14;;;;;;;4.22;1.50;;;;;;;17.36;68.24;100230.16;4966682;28;20050;-44
2022/09/02 03:16:40;;;;;;;4.70;1.60;;;;;;;17.31;68.45;100222.44;4970270;28;20104;-47
2022/09/02 03:19:07;;;;;;;5.30;1.65;;;;;;;17.27;68.03;100220.81;4965214;28;20043;-43
2022/09/02 03:21:34;;;;;;;4.50;1.70;;;;;;;17.24;68.73;100220.03;4969651;28;20558;-42
2022/09/02 03:24:05;;;;;;;6.93;1.77;;;;;;;17.19;68.03;100223.63;4962994;28;20046;-41
2022/09/02 03:26:32;;;;;;;5.57;1.63;;;;;;;17.16;68.13;100223.72;4966678;28;20047;-46
2022/09/02 03:28:58;;;;;;;3.25;1.70;;;;;;;17.13;67.86;100223.81;4964675;28;20043;-41
2022/09/02 03:31:27;;;;;;;4.93;1.33;;;;;;;17.12;68.49;100229.94;4965934;28;20569;-45
2022/09/02 03:33:54;;;;;;;7.10;1.92;;;;;;;17.08;68.53;100223.94;4966827;28;20050;-47
2022/09/02 03:36:25;;;;;;;4.80;1.60;;;;;;;17.06;67.91;100222.25;4965860;28;20058;-47
2022/09/02 03:38:52;;;;;;;6.90;1.60;;;;;;;17.03;68.73;100223.19;4982454;28;20051;-43
2022/09/02 03:41:19;;;;;;;6.80;1.60;;;;;;;17.02;68.22;100217.97;4966848;28;20043;-43
2022/09/02 03:43:46;;;;;;;6.85;1.48;;;;;;;17.00;68.31;100222.38;4956957;28;20725;-44
2022/09/02 03:46:14;;;;;;;6.28;1.75;;;;;;;16.98;68.12;100218.97;4967343;28;20047;-42
2022/09/02 03:48:41;;;;;;;4.85;2.00;;;;;;;16.96;68.04;100217.22;4968772;28;20047;-50
2022/09/02 03:51:07;;;;;;;6.70;1.63;;;;;;;16.96;68.74;100217.22;4966317;28;20051;-44
2022/09/02 03:53:34;;;;;;;3.90;1.42;;;;;;;16.95;68.46;100210.28;4966484;28;20055;-44
2022/09/02 03:56:07;;;;;;;5.07;1.60;;;;;;;16.96;68.09;100206.75;4972222;28;20443;-47
2022/09/02 03:58:35;;;;;;;8.20;1.92;;;;;;;16.98;68.46;100208.50;4977368;28;20542;-43
2022/09/02 04:01:03;;;;;;;8.15;2.22;;;;;;;16.98;68.27;100203.28;4965883;28;20046;-41
2022/09/02 04:03:30;;;;;;;7.78;1.80;;;;;;;16.99;68.19;100204.97;4964577;28;20570;-43
2022/09/02 04:05:57;;;;;;;8.30;2.13;;;;;;;16.99;68.14;100202.38;4962601;28;20109;-46
2022/09/02 04:08:24;;;;;;;6.85;1.70;;;;;;;16.98;68.56;100196.25;4964238;28;20652;-52
2022/09/02 04:10:51;;;;;;;8.48;2.03;;;;;;;16.96;68.58;100205.94;4966849;28;20054;-43
2022/09/02 04:13:18;;;;;;;4.78;1.40;;;;;;;16.93;68.68;100201.59;4969119;28;20073;-45
2022/09/02 04:15:47;;;;;;;6.93;1.90;;;;;;;16.89;68.76;100193.91;4971078;28;20054;-46
2022/09/02 04:18:16;;;;;;;4.93;2.15;;;;;;;16.89;69.55;100194.75;4968735;28;20051;-42
2022/09/02 04:20:44;;;;;;;4.57;1.48;;;;;;;16.87;68.84;100191.31;4981136;28;20581;-47
2022/09/02 04:23:10;;;;;;;7.38;1.85;;;;;;;16.86;69.28;100184.38;4983121;28;20047;-44
2022/09/02 04:25:40;;;;;;;9.10;2.55;;;;;;;16.88;69.32;100177.34;4968302;28;20046;-52
2022/09/02 04:28:07;;;;;;;;;;;;;;;16.72;69.67;100171.66;4966586;28;20050;-42
2022/09/02 04:30:36;;;;;;;4.63;1.55;;;;;;;16.87;68.68;100180.88;4962357;28;19961;-42
2022/09/02 04:33:03;;;;;;;;;;;;;;;16.72;69.88;100176.88;4967500;28;20050;-46
2022/09/02 04:35:30;;;;;;;4.03;1.73;;;;;;;16.87;68.54;100170.41;4969016;28;19929;-49
2022/09/02 04:37:56;;;;;;;4.13;1.50;;;;;;;16.91;69.09;100172.03;4966126;28;20719;-42
2022/09/02 04:40:23;;;;;;;5.55;1.58;;;;;;;16.92;69.24;100172.91;4964309;28;20046;-44
2022/09/02 04:42:52;;;;;;;6.97;2.10;;;;;;;16.92;69.54;100168.50;4964236;28;20086;-43
2022/09/02 04:45:20;;;;;;;10.30;2.13;;;;;;;16.92;68.79;100173.75;4968923;28;20045;-41
2022/09/02 04:47:52;;;;;;;7.75;1.50;;;;;;;16.94;68.72;100182.41;4967133;28;20054;-45
2022/09/02 04:50:18;;;;;;;7.03;2.15;;;;;;;16.95;69.52;100175.41;4965985;28;20056;-46
2022/09/02 04:52:45;;;;;;;5.55;1.27;;;;;;;16.98;69.57;100177.09;4966922;28;20110;-47
2022/09/02 04:55:12;;;;;;;3.88;1.88;;;;;;;16.99;69.38;100178.81;4962758;28;20106;-45
2022/09/02 04:57:38;;;;;;;5.07;1.77;;;;;;;17.00;68.89;100178.78;4966697;28;20066;-44
2022/09/02 05:00:06;;;;;;;8.18;1.77;;;;;;;16.99;69.08;100178.81;4964058;28;20051;-46
2022/09/02 05:02:33;;;;;;;5.10;2.03;;;;;;;16.98;69.18;100171.88;4976042;28;20050;-46
2022/09/02 05:05:00;;;;;;;8.18;2.00;;;;;;;16.98;69.32;100182.34;4965963;28;20066;-48
2022/09/02 05:07:27;;;;;;;6.80;2.30;;;;;;;16.98;69.47;100177.09;4981302;28;20113;-48
2022/09/02 05:09:58;;;;;;;7.32;1.50;;;;;;;16.97;69.15;100181.47;4967082;28;20034;-46
2022/09/02 05:12:26;;;;;;;6.22;1.23;;;;;;;16.97;69.69;100178.84;4962734;28;20495;-44
2022/09/02 05:14:55;;;;;;;6.10;1.58;;;;;;;16.96;69.55;100178.00;4966167;28;20112;-45
2022/09/02 05:17:22;;;;;;;7.38;1.48;;;;;;;16.96;69.57;100175.38;4963887;28;20480;-48
2022/09/02 05:19:49;;;;;;;9.35;1.45;;;;;;;16.97;69.28;100173.63;4964876;28;20369;-46
2022/09/02 05:22:16;;;;;;;9.48;1.83;;;;;;;16.97;69.86;100176.25;4967986;28;20050;-47
2022/09/02 05:24:43;;;;;;;5.05;1.45;;;;;;;16.98;69.68;100171.88;4964278;28;20055;-46
2022/09/02 05:27:10;;;;;;;10.07;1.77;;;;;;;16.98;70.05;100177.94;4964287;28;20054;-45
2022/09/02 05:29:36;;;;;;;11.00;1.95;;;;;;;17.00;69.80;100176.16;4967740;28;20046;-41
2022/09/02 05:32:03;;;;;;;5.50;1.50;;;;;;;17.03;69.55;100181.31;4965675;28;20054;-42
2022/09/02 05:34:32;;;;;;;5.30;1.65;;;;;;;17.05;69.78;100178.63;4982826;28;20050;-46
2022/09/02 05:36:58;;;;;;;6.32;1.88;;;;;;;17.07;69.90;100187.34;4963133;28;20051;-48
2022/09/02 05:39:25;;;;;;;4.03;1.20;;;;;;;17.08;69.99;100181.19;4969129;28;20046;-48
2022/09/02 05:41:52;;;;;;;4.82;1.45;;;;;;;17.06;69.75;100178.63;4967230;28;20126;-41
2022/09/02 05:44:18;;;;;;;7.38;2.03;;;;;;;17.07;69.76;100187.34;4967195;28;20054;-49
2022/09/02 05:46:45;;;;;;;4.97;1.48;;;;;;;17.05;69.60;100186.47;4968962;28;20077;-46
2022/09/02 05:49:20;;;;;;;6.53;2.03;;;;;;;17.07;69.64;100182.09;4966559;28;20059;-48
2022/09/02 05:51:54;;;;;;;5.00;1.63;;;;;;;17.06;70.25;100169.94;4973942;28;20046;-49
2022/09/02 05:57:00;;;;;;;4.60;2.38;;;;;;;17.06;70.02;100180.41;5028472;28;20900;-49
2022/09/02 05:59:29;;;;;;;4.25;1.85;;;;;;;17.07;69.93;100176.88;5008547;28;20062;-47
2022/09/02 06:01:57;;;;;;;5.15;1.88;;;;;;;17.08;70.04;100181.19;4999843;28;20492;-44
2022/09/02 06:04:24;;;;;;;6.30;2.17;;;;;;;17.08;69.86;100179.44;5008647;28;20152;-49
2022/09/02 06:06:51;;;;;;;7.82;1.90;;;;;;;17.11;70.30;100188.97;5011280;28;20049;-43
2022/09/02 06:09:21;;;;;;;8.38;2.10;;;;;;;17.10;70.45;100182.03;4995045;28;20042;-50
2022/09/02 06:11:49;;;;;;;7.55;1.67;;;;;;;17.09;70.62;100185.53;4986384;28;20050;-46
2022/09/02 06:14:20;;;;;;;6.30;2.13;;;;;;;17.09;70.39;100185.53;4997233;28;20109;-43
2022/09/02 06:16:49;;;;;;;5.40;2.42;;;;;;;17.07;70.69;100182.09;4995162;28;20050;-44
2022/09/02 06:19:16;;;;;;;7.32;3.38;;;;;;;17.07;70.77;100187.34;4990653;28;20121;-43
2022/09/02 06:21:47;;;;;;;4.70;1.92;;;;;;;17.06;70.68;100169.94;4988205;28;20541;-49
2022/09/02 06:24:15;;;;;;;7.55;2.35;;;;;;;17.05;71.08;100173.41;4992051;28;20072;-43
2022/09/02 06:26:42;;;;;;;5.63;3.30;;;;;;;17.03;71.34;100169.97;4986858;28;20395;-45
2022/09/02 06:29:09;;;;;;;8.55;2.17;;;;;;;17.02;71.74;100173.50;4991085;28;20046;-42
2022/09/02 06:31:36;;;;;;;8.05;2.33;;;;;;;17.03;71.35;100172.59;4983483;28;20050;-49
2022/09/02 06:34:03;;;;;;;6.60;2.35;;;;;;;17.04;71.87;100176.91;4994904;28;20077;-42
2022/09/02 06:36:31;;;;;;;11.13;2.63;;;;;;;17.04;71.41;100179.53;4986585;28;20043;-44
2022/09/02 06:38:59;;;;;;;6.30;2.25;;;;;;;17.07;71.63;100174.25;4993808;28;20132;-41
2022/09/02 06:41:29;;;;;;;5.43;2.35;;;;;;;17.08;71.34;100173.34;4985831;28;20055;-43
2022/09/02 06:43:58;;;;;;;9.52;2.58;;;;;;;17.09;72.19;100170.69;4992602;28;20888;-44
2022/09/02 06:46:30;;;;;;;6.57;2.35;;;;;;;17.09;71.74;100164.59;4985452;28;20046;-46
2022/09/02 06:48:58;;;;;;;7.05;3.15;;;;;;;17.09;72.24;100160.22;4989490;28;20403;-47
2022/09/02 06:51:28;;;;;;;10.07;2.28;;;;;;;17.10;71.99;100171.56;4986068;28;20069;-44
2022/09/02 06:53:56;;;;;;;9.95;2.30;;;;;;;17.11;72.42;100168.03;4979391;28;20066;-43
2022/09/02 06:56:24;;;;;;;6.47;3.63;;;;;;;17.11;72.07;100168.03;4991783;28;20856;-44
2022/09/02 06:58:50;;;;;;;4.65;2.00;;;;;;;17.12;72.43;100164.50;4995837;28;20054;-51
2022/09/02 07:01:25;;;;;;;4.90;2.13;;;;;;;17.12;72.17;100169.75;4981661;28;20055;-47
2022/09/02 07:06:41;;;;;;;6.57;1.88;;;;;;;17.17;71.62;100167.88;4982808;28;20066;-43
2022/09/02 07:09:09;;;;;;;;;;;;;;;17.02;71.95;100169.09;4973303;28;20050;-43
2022/09/02 07:11:37;;;;;;;11.70;3.40;;;;;;;17.15;71.93;100164.44;4971194;28;20326;-47
2022/09/02 07:14:04;;;;;;;7.70;2.30;;;;;;;17.17;72.08;100167.88;4970674;28;20050;-43
2022/09/02 07:16:35;;;;;;;5.82;2.42;;;;;;;17.20;72.57;100167.75;4969130;28;20137;-49
2022/09/02 07:19:03;;;;;;;12.02;2.50;;;;;;;17.21;71.75;100164.28;4975082;28;20050;-44
2022/09/02 07:21:40;;;;;;;9.27;2.42;;;;;;;17.23;72.32;100165.97;4973632;28;20791;-41
2022/09/02 07:24:10;;;;;;;5.75;2.22;;;;;;;17.25;72.76;100169.41;4981571;28;20039;-47
2022/09/02 07:26:37;;;;;;;8.30;2.60;;;;;;;17.23;72.88;100160.75;4967619;28;20055;-43
2022/09/02 07:29:07;;;;;;;6.80;2.65;;;;;;;17.24;72.29;100157.22;4968652;28;20533;-43
2022/09/02 07:31:36;;;;;;;7.30;3.65;;;;;;;17.24;72.44;100155.47;4967931;28;20053;-47
2022/09/02 07:34:05;;;;;;;8.85;3.75;;;;;;;17.25;73.33;100151.09;4969439;28;20422;-40
2022/09/02 07:36:33;;;;;;;8.82;2.83;;;;;;;17.27;72.99;100146.66;4951974;28;20043;-45
2022/09/02 07:39:01;;;;;;;8.32;3.13;;;;;;;17.28;73.35;100149.22;4976302;28;20058;-44
2022/09/02 07:41:28;;;;;;;7.53;3.40;;;;;;;17.29;72.88;100150.09;4969388;28;20538;-44
2022/09/02 07:43:55;;;;;;;6.55;3.70;;;;;;;17.30;73.28;100149.19;4982991;28;20420;-46
2022/09/02 07:46:25;;;;;;;;;;;;;;;17.18;73.01;100142.53;4972865;28;20057;-42
2022/09/02 07:48:52;;;;;;;9.07;2.75;;;;;;;17.33;73.23;100142.09;4978473;28;19928;-51
2022/09/02 07:51:19;;;;;;;5.18;2.78;;;;;;;17.38;73.53;100149.81;4978818;28;20105;-45
2022/09/02 07:53:46;;;;;;;11.05;3.60;;;;;;;17.40;73.36;100132.31;4977587;28;20054;-45
2022/09/02 07:56:13;;;;;;;6.53;3.85;;;;;;;17.43;73.04;100137.44;4976877;28;20045;-44
2022/09/02 07:58:43;;;;;;;8.95;2.97;;;;;;;17.44;73.77;100133.94;4975169;28;20081;-41
2022/09/02 08:01:10;;;;;;;13.48;3.08;;;;;;;17.45;73.56;100140.88;4972699;28;20043;-45
2022/09/02 08:03:40;;;;;;;8.57;3.08;;;;;;;17.46;73.29;100137.34;4968561;28;20050;-46
2022/09/02 08:06:07;;;;;;;9.90;3.70;;;;;;;17.50;73.66;100137.28;4974071;28;20650;-44
2022/09/02 08:08:34;;;;;;;7.13;3.20;;;;;;;17.53;74.05;100138.03;4967933;28;20047;-43
2022/09/02 08:11:02;;;;;;;7.20;2.85;;;;;;;17.56;74.08;100126.63;4982448;28;20050;-48
2022/09/02 08:13:28;;;;;;;6.55;2.88;;;;;;;17.59;73.91;100129.13;4974701;28;20045;-42
2022/09/02 08:15:55;;;;;;;5.35;2.83;;;;;;;17.59;73.97;100127.38;4974764;28;20457;-45
2022/09/02 08:18:22;;;;;;;8.77;4.25;;;;;;;17.62;73.82;100131.66;4974887;28;20711;-42
2022/09/02 08:20:49;;;;;;;8.57;3.58;;;;;;;17.66;73.70;100122.78;4966111;28;20105;-51
2022/09/02 08:23:16;;;;;;;11.88;3.45;;;;;;;17.69;73.88;100120.09;4967966;28;20046;-44
2022/09/02 08:26:04;;;;;;;5.57;2.72;;;;;;;17.69;73.50;100119.22;4966808;28;20059;-46
2022/09/02 08:28:31;;;;;;;9.75;4.47;;;;;;;17.72;73.88;100112.13;4967060;28;20418;-40
2022/09/02 08:30:58;;;;;;;9.02;3.03;;;;;;;17.78;73.42;100121.56;4969249;28;20105;-47
2022/09/02 08:33:25;;;;;;;5.72;3.05;;;;;;;17.80;73.41;100118.91;4969890;28;20058;-47
2022/09/02 08:35:52;;;;;;;9.27;2.97;;;;;;;17.81;73.90;100116.22;4964588;28;20080;-42
2022/09/02 08:38:20;;;;;;;9.93;3.15;;;;;;;17.81;74.12;100124.09;4968577;28;20050;-41
2022/09/02 08:40:49;;;;;;;9.35;2.80;;;;;;;17.83;74.59;100116.16;4967353;28;21563;-48
2022/09/02 08:43:40;;;;;;;8.10;3.47;;;;;;;17.79;74.20;100111.91;4964775;28;20161;-43
2022/09/02 08:46:11;;;;;;;8.35;2.88;;;;;;;17.87;73.78;100115.19;4981476;28;20135;-48
2022/09/02 08:51:26;;;;;;;10.68;5.00;;;;;;;17.95;74.74;100110.53;5020426;28;20422;-52
2022/09/02 08:54:07;;;;;;;7.15;3.60;;;;;;;17.95;74.46;100113.16;5017664;28;20529;-45
2022/09/02 08:56:34;;;;;;;7.72;4.15;;;;;;;17.98;74.33;100107.84;5016677;28;20112;-43
2022/09/02 08:59:02;;;;;;;8.07;4.10;;;;;;;18.01;74.67;100098.13;5016694;28;20054;-45
2022/09/02 09:09:59;;;;;;;8.05;3.13;;;;;;;18.12;75.19;100082.94;5059503;28;20404;-41
2022/09/02 09:22:56;;;;;;;8.38;4.05;;;;;;;18.29;74.25;100089.38;5118082;27;20396;-44
2022/09/02 09:25:28;;;;;;;7.35;3.40;;;;;;;18.32;74.79;100084.03;5086306;28;20075;-50
2022/09/02 09:27:56;;;;;;;7.95;3.58;;;;;;;18.36;74.18;100090.88;5088263;28;20052;-44
2022/09/02 09:30:24;;;;;;;10.13;3.50;;;;;;;18.38;74.17;100083.81;5087956;28;20044;-44
2022/09/02 09:32:53;;;;;;;10.80;3.10;;;;;;;18.42;74.23;100085.44;5092050;28;20083;-48
2022/09/02 09:35:21;;;;;;;9.00;3.05;;;;;;;18.44;74.44;100091.47;5079883;28;20040;-48
2022/09/02 09:37:49;;;;;;;9.02;3.00;;;;;;;18.48;74.00;100092.22;5090365;28;20052;-52
2022/09/02 09:45:36;;;;;;;7.30;5.45;;;;;;;18.55;73.69;100087.63;5060414;28;20397;-49
2022/09/02 09:53:32;;;;;;;10.65;3.45;;;;;;;18.57;74.02;100083.16;5071082;27;20743;-45
2022/09/02 10:20:39;;;;;;;13.63;4.57;;;;;;;18.91;73.67;100055.69;5036479;27;20395;-44
2022/09/02 10:23:51;;;;;;;10.32;4.28;;;;;;;18.98;74.07;100051.94;4992997;28;20136;-45
2022/09/02 10:29:41;;;;;;;9.63;4.63;;;;;;;19.03;73.78;100062.25;5024755;28;20414;-42
2022/09/02 10:38:13;;;;;;;10.73;5.50;;;;;;;19.32;73.91;100049.78;5034565;28;20392;-44
2022/09/02 10:45:59;;;;;;;9.93;3.70;;;;;;;19.36;73.99;100034.78;5081843;27;20398;-46
2022/09/02 10:56:41;;;;;;;9.65;5.30;;;;;;;19.69;72.42;100026.44;5032448;28;20735;-44
2022/09/02 10:59:13;;;;;;;6.72;3.78;;;;;;;19.50;73.09;100029.84;5018455;28;20042;-42
2022/09/02 11:01:53;;;;;;;8.90;4.32;;;;;;;19.40;72.88;100028.50;5021235;28;20041;-45
2022/09/02 11:06:59;;;;;;;10.65;4.53;;;;;;;19.40;73.13;100015.38;5057320;28;20402;-47
2022/09/02 11:12:16;;;;;;;11.15;4.60;;;;;;;19.45;73.18;100020.44;5022493;28;20495;-43
2022/09/02 11:17:41;;;;;;;8.23;6.32;;;;;;;19.50;72.81;100015.84;5022604;28;20415;-45
2022/09/02 11:22:56;;;;;;;8.10;4.15;;;;;;;19.52;72.88;99999.09;5047924;28;20384;-46
2022/09/02 11:30:44;;;;;;;8.90;5.10;;;;;;;19.70;73.59;100001.03;5041903;28;20404;-43
2022/09/02 11:33:20;;;;;;;10.68;5.20;;;;;;;19.71;72.91;99986.97;5067071;28;20439;-47
2022/09/02 11:35:47;;;;;;;11.43;4.28;;;;;;;19.74;73.02;99990.34;5065265;28;20049;-47
2022/09/02 11:54:42;;;;;;;8.88;5.43;;;;;;;19.92;72.08;99990.47;5042605;28;20414;-45
2022/09/02 11:57:14;;;;;;;10.27;5.40;;;;;;;19.96;72.08;99981.53;5007587;28;20045;-43
2022/09/02 12:00:03;;;;;;;6.40;5.75;;;;;;;20.01;72.19;99979.59;4999721;28;20054;-48
2022/09/02 12:07:48;;;;;;;11.15;6.40;;;;;;;20.48;71.37;99972.28;5037458;27;20397;-42
2022/09/02 12:18:29;;;;;;;6.13;3.80;;;;;;;20.50;70.39;99954.66;5022818;27;20426;-44
2022/09/02 12:37:49;;;;;;;10.90;4.80;;;;;;;20.52;70.15;99950.19;5039078;28;20915;-47
2022/09/02 13:09:46;;;;;;;12.98;6.32;;;;;;;20.65;69.82;99918.91;5057766;27;20922;-46
2022/09/02 13:41:48;;;;;;;11.93;6.32;;;;;;;21.26;69.34;99863.34;5021050;27;20405;-40
2022/09/02 13:44:30;;;;;;;10.50;6.10;;;;;;;21.28;69.52;99871.19;5010821;28;20069;-45
2022/09/02 13:47:15;;;;;;;8.75;6.15;;;;;;;21.31;69.30;99855.22;5013296;28;20060;-44
2022/09/02 13:49:44;;;;;;;12.10;7.95;;;;;;;21.39;69.36;99857.47;4999709;28;20446;-43
2022/09/02 13:52:18;;;;;;;13.95;5.97;;;;;;;21.44;68.92;99851.03;5035387;28;20129;-45
2022/09/02 13:54:53;;;;;;;10.02;6.28;;;;;;;21.52;69.45;99850.59;5012544;28;20048;-43
2022/09/02 13:57:26;;;;;;;13.05;7.55;;;;;;;21.56;69.13;99849.53;5003578;28;20042;-45
2022/09/02 13:59:55;;;;;;;9.20;6.00;;;;;;;21.60;68.89;99849.34;5001530;28;20097;-45
2022/09/02 14:02:38;;;;;;;;;;;;;;;21.54;68.63;99851.41;5011495;28;20042;-46
2022/09/02 14:05:12;;;;;;;12.65;7.00;;;;;;;21.68;68.23;99841.91;5001261;28;19961;-43
2022/09/02 14:07:44;;;;;;;12.00;6.32;;;;;;;21.70;67.97;99835.63;5026937;28;20109;-42
2022/09/02 14:10:15;;;;;;;12.77;6.63;;;;;;;21.74;68.08;99836.34;5014027;28;20118;-44
2022/09/02 14:12:43;;;;;;;11.77;6.20;;;;;;;21.77;68.14;99841.47;5005395;28;20556;-42
2022/09/02 14:15:13;;;;;;;10.98;6.70;;;;;;;21.80;67.92;99840.44;5004692;28;20482;-46
2022/09/02 14:17:40;;;;;;;10.65;6.90;;;;;;;21.80;67.53;99830.75;5004255;28;20050;-42
2022/09/02 14:20:22;;;;;;;12.45;6.82;;;;;;;21.81;67.66;99819.28;5005553;28;20101;-41
2022/09/02 14:22:51;;;;;;;;;;;;;;;21.77;68.27;99817.75;5005632;28;20058;-43
2022/09/02 14:25:18;;;;;;;11.98;6.63;;;;;;;21.92;67.21;99815.22;5005036;28;20362;-42
2022/09/02 14:27:56;;;;;;;7.55;5.22;;;;;;;21.95;67.04;99820.31;5003916;28;20049;-44
2022/09/02 14:30:30;;;;;;;8.48;6.13;;;;;;;21.98;67.59;99817.50;5003091;28;20104;-47
2022/09/02 14:33:26;;;;;;;12.50;6.10;;;;;;;21.98;67.24;99809.59;5002370;28;20140;-45
2022/09/02 14:41:34;;;;;;;12.10;8.00;;;;;;;22.09;66.77;99803.75;5087958;27;20406;-44
2022/09/02 14:44:14;;;;;;;12.85;7.85;;;;;;;22.10;66.62;99808.09;5047511;28;20551;-43
2022/09/02 14:46:47;;;;;;;9.93;7.93;;;;;;;22.13;66.27;99799.16;5058165;28;20045;-42
2022/09/02 14:49:43;;;;;;;8.93;5.95;;;;;;;22.13;66.38;99800.00;5050304;28;20493;-46
2022/09/02 14:52:17;;;;;;;14.50;7.65;;;;;;;22.18;66.06;99792.69;5086825;28;20105;-45
2022/09/02 14:54:48;;;;;;;13.70;7.45;;;;;;;22.21;66.41;99791.66;5089216;28;20048;-42
2022/09/02 14:57:37;;;;;;;9.60;6.15;;;;;;;22.22;66.03;99788.06;5087803;28;20869;-46
2022/09/02 15:00:10;;;;;;;10.25;7.78;;;;;;;22.30;66.62;99785.03;5083789;28;20051;-44
2022/09/02 15:02:42;;;;;;;12.80;8.20;;;;;;;22.38;66.15;99781.94;5088374;28;20048;-43
2022/09/02 15:05:13;;;;;;;14.82;7.63;;;;;;;22.43;66.04;99777.28;5082817;28;20098;-46
2022/09/02 15:07:40;;;;;;;14.75;8.55;;;;;;;22.46;66.20;99763.91;5085382;28;20043;-44
2022/09/02 15:10:08;;;;;;;11.52;6.00;;;;;;;22.50;65.05;99762.78;5082755;28;20353;-46